sensor_id;sensor_type;location;lat;lon;timestamp;pressure;altitude;pressure_sealevel;temperature;humidity
54270;BME280;40181;51.560;13.000;2022-07-17T00:02:17;101697.59;;;14.54;52.54
54270;BME280;40181;51.560;13.000;2022-07-17T00:04:45;101699.31;;;14.50;52.61
54270;BME280;40181;51.560;13.000;2022-07-17T00:07:14;101703.59;;;14.44;52.29
54270;BME280;40181;51.560;13.000;2022-07-17T00:09:42;101706.94;;;14.33;52.90
54270;BME280;40181;51.560;13.000;2022-07-17T00:12:10;101706.94;;;14.33;52.83
54270;BME280;40181;51.560;13.000;2022-07-17T00:14:38;101710.50;;;14.35;53.04
54270;BME280;40181;51.560;13.000;2022-07-17T00:17:09;101712.41;;;14.44;52.83
54270;BME280;40181;51.560;13.000;2022-07-17T00:19:37;101710.50;;;14.34;52.88
54270;BME280;40181;51.560;13.000;2022-07-17T00:22:06;101712.19;;;14.30;52.93
54270;BME280;40181;51.560;13.000;2022-07-17T00:24:34;101721.91;;;14.31;52.80
54270;BME280;40181;51.560;13.000;2022-07-17T00:27:02;101713.19;;;14.37;52.79
54270;BME280;40181;51.560;13.000;2022-07-17T00:29:31;101706.16;;;14.37;52.80
54270;BME280;40181;51.560;13.000;2022-07-17T00:31:59;101709.66;;;14.38;53.05
54270;BME280;40181;51.560;13.000;2022-07-17T00:34:30;101707.78;;;14.29;53.20
54270;BME280;40181;51.560;13.000;2022-07-17T00:36:58;101716.69;;;14.36;53.44
54270;BME280;40181;51.560;13.000;2022-07-17T00:39:26;101719.16;;;14.23;53.58
54270;BME280;40181;51.560;13.000;2022-07-17T00:41:54;101717.25;;;14.18;54.23
54270;BME280;40181;51.560;13.000;2022-07-17T00:44:26;101716.09;;;14.02;54.29
54270;BME280;40181;51.560;13.000;2022-07-17T00:46:54;101722.13;;;13.93;54.59
54270;BME280;40181;51.560;13.000;2022-07-17T00:49:22;101715.75;;;13.81;55.26
54270;BME280;40181;51.560;13.000;2022-07-17T00:51:53;101719.66;;;13.56;55.17
54270;BME280;40181;51.560;13.000;2022-07-17T00:54:22;101722.44;;;13.64;55.13
54270;BME280;40181;51.560;13.000;2022-07-17T00:56:51;101711.94;;;13.65;55.14
54270;BME280;40181;51.560;13.000;2022-07-17T00:59:20;101707.41;;;13.60;55.11
54270;BME280;40181;51.560;13.000;2022-07-17T01:01:49;101706.91;;;13.35;56.10
54270;BME280;40181;51.560;13.000;2022-07-17T01:04:17;101710.34;;;13.31;56.03
54270;BME280;40181;51.560;13.000;2022-07-17T01:06:45;101718.44;;;13.40;55.92
54270;BME280;40181;51.560;13.000;2022-07-17T01:09:16;101707.78;;;13.35;56.38
54270;BME280;40181;51.560;13.000;2022-07-17T01:11:44;101708.47;;;13.25;56.63
54270;BME280;40181;51.560;13.000;2022-07-17T01:14:12;101711.78;;;13.14;56.52
54270;BME280;40181;51.560;13.000;2022-07-17T01:16:40;101712.69;;;13.17;56.86
54270;BME280;40181;51.560;13.000;2022-07-17T01:19:10;101714.22;;;13.07;57.02
54270;BME280;40181;51.560;13.000;2022-07-17T01:21:42;101720.22;;;12.98;57.06
54270;BME280;40181;51.560;13.000;2022-07-17T01:24:11;101722.56;;;12.85;57.53
54270;BME280;40181;51.560;13.000;2022-07-17T01:26:41;101719.75;;;12.78;57.60
54270;BME280;40181;51.560;13.000;2022-07-17T01:29:11;101711.94;;;12.82;57.94
54270;BME280;40181;51.560;13.000;2022-07-17T01:31:40;101716.69;;;12.59;58.04
54270;BME280;40181;51.560;13.000;2022-07-17T01:34:10;101717.13;;;12.41;58.83
54270;BME280;40181;51.560;13.000;2022-07-17T01:36:41;101726.97;;;12.11;59.32
54270;BME280;40181;51.560;13.000;2022-07-17T01:39:10;101729.72;;;12.17;59.24
54270;BME280;40181;51.560;13.000;2022-07-17T01:41:38;101725.78;;;12.01;59.46
54270;BME280;40181;51.560;13.000;2022-07-17T01:44:06;101727.06;;;11.84;60.52
54270;BME280;40181;51.560;13.000;2022-07-17T01:46:34;101722.91;;;11.92;60.40
54270;BME280;40181;51.560;13.000;2022-07-17T01:49:03;101733.13;;;11.81;60.71
54270;BME280;40181;51.560;13.000;2022-07-17T01:51:31;101723.59;;;11.85;60.68
54270;BME280;40181;51.560;13.000;2022-07-17T01:54:02;101730.81;;;11.92;60.30
54270;BME280;40181;51.560;13.000;2022-07-17T01:56:30;101726.75;;;11.71;61.60
54270;BME280;40181;51.560;13.000;2022-07-17T01:58:58;101725.75;;;11.68;61.07
54270;BME280;40181;51.560;13.000;2022-07-17T02:01:26;101724.34;;;11.48;61.93
54270;BME280;40181;51.560;13.000;2022-07-17T02:03:54;101718.34;;;11.53;61.74
54270;BME280;40181;51.560;13.000;2022-07-17T02:06:22;101732.44;;;11.24;62.43
54270;BME280;40181;51.560;13.000;2022-07-17T02:08:50;101728.09;;;11.26;62.57
54270;BME280;40181;51.560;13.000;2022-07-17T02:11:21;101717.75;;;11.32;62.49
54270;BME280;40181;51.560;13.000;2022-07-17T02:13:49;101721.41;;;11.38;62.32
54270;BME280;40181;51.560;13.000;2022-07-17T02:16:17;101717.50;;;11.55;62.18
54270;BME280;40181;51.560;13.000;2022-07-17T02:18:45;101723.88;;;11.63;61.84
54270;BME280;40181;51.560;13.000;2022-07-17T02:21:13;101710.53;;;11.56;61.95
54270;BME280;40181;51.560;13.000;2022-07-17T02:23:42;101712.91;;;11.46;62.36
54270;BME280;40181;51.560;13.000;2022-07-17T02:26:10;101711.84;;;11.41;62.77
54270;BME280;40181;51.560;13.000;2022-07-17T02:28:40;101719.59;;;11.35;63.16
54270;BME280;40181;51.560;13.000;2022-07-17T02:31:08;101725.78;;;11.37;62.85
54270;BME280;40181;51.560;13.000;2022-07-17T02:33:37;101726.41;;;11.28;63.11
54270;BME280;40181;51.560;13.000;2022-07-17T02:36:05;101715.38;;;11.11;63.74
54270;BME280;40181;51.560;13.000;2022-07-17T02:38:33;101733.22;;;11.21;63.41
54270;BME280;40181;51.560;13.000;2022-07-17T02:41:02;101728.16;;;11.29;63.47
54270;BME280;40181;51.560;13.000;2022-07-17T02:43:30;101725.56;;;10.99;63.76
54270;BME280;40181;51.560;13.000;2022-07-17T02:46:01;101735.22;;;11.00;63.73
54270;BME280;40181;51.560;13.000;2022-07-17T02:48:30;101727.50;;;10.77;64.53
54270;BME280;40181;51.560;13.000;2022-07-17T02:50:58;101727.69;;;10.83;64.66
54270;BME280;40181;51.560;13.000;2022-07-17T02:53:26;101734.97;;;10.92;64.44
54270;BME280;40181;51.560;13.000;2022-07-17T02:55:54;101731.59;;;10.67;65.57
54270;BME280;40181;51.560;13.000;2022-07-17T02:58:22;101744.31;;;10.55;65.80
54270;BME280;40181;51.560;13.000;2022-07-17T03:00:51;101739.69;;;10.75;65.37
54270;BME280;40181;51.560;13.000;2022-07-17T03:03:22;101749.13;;;10.68;65.62
54270;BME280;40181;51.560;13.000;2022-07-17T03:05:50;101739.81;;;10.50;66.21
54270;BME280;40181;51.560;13.000;2022-07-17T03:08:18;101741.84;;;10.59;65.90
54270;BME280;40181;51.560;13.000;2022-07-17T03:10:46;101737.13;;;10.76;65.35
54270;BME280;40181;51.560;13.000;2022-07-17T03:13:14;101742.75;;;10.60;66.06
54270;BME280;40181;51.560;13.000;2022-07-17T03:15:42;101736.94;;;10.70;65.71
54270;BME280;40181;51.560;13.000;2022-07-17T03:18:11;101745.38;;;10.61;65.83
54270;BME280;40181;51.560;13.000;2022-07-17T03:20:41;101737.34;;;10.57;66.40
54270;BME280;40181;51.560;13.000;2022-07-17T03:23:09;101745.66;;;10.69;65.85
54270;BME280;40181;51.560;13.000;2022-07-17T03:25:37;101740.06;;;10.58;66.37
54270;BME280;40181;51.560;13.000;2022-07-17T03:28:06;101747.59;;;10.75;65.78
54270;BME280;40181;51.560;13.000;2022-07-17T03:30:34;101743.25;;;10.77;65.83
54270;BME280;40181;51.560;13.000;2022-07-17T03:33:02;101744.81;;;10.70;66.06
54270;BME280;40181;51.560;13.000;2022-07-17T03:35:30;101734.78;;;10.58;66.92
54270;BME280;40181;51.560;13.000;2022-07-17T03:38:01;101740.25;;;10.64;66.60
54270;BME280;40181;51.560;13.000;2022-07-17T03:40:29;101742.31;;;10.47;67.38
54270;BME280;40181;51.560;13.000;2022-07-17T03:42:58;101750.56;;;10.58;67.14
54270;BME280;40181;51.560;13.000;2022-07-17T03:45:26;101745.44;;;10.63;66.94
54270;BME280;40181;51.560;13.000;2022-07-17T03:47:54;101754.28;;;10.65;66.46
54270;BME280;40181;51.560;13.000;2022-07-17T03:50:22;101760.34;;;10.62;67.09
54270;BME280;40181;51.560;13.000;2022-07-17T03:52:50;101759.84;;;10.48;67.67
54270;BME280;40181;51.560;13.000;2022-07-17T03:55:21;101780.94;;;10.50;67.60
54270;BME280;40181;51.560;13.000;2022-07-17T03:57:49;101777.22;;;10.43;68.08
54270;BME280;40181;51.560;13.000;2022-07-17T04:00:17;101768.59;;;10.47;68.03
54270;BME280;40181;51.560;13.000;2022-07-17T04:02:46;101770.41;;;10.24;68.60
54270;BME280;40181;51.560;13.000;2022-07-17T04:05:14;101776.50;;;10.23;68.98
54270;BME280;40181;51.560;13.000;2022-07-17T04:07:42;101777.19;;;10.17;69.33
54270;BME280;40181;51.560;13.000;2022-07-17T04:10:12;101777.94;;;10.13;69.52
54270;BME280;40181;51.560;13.000;2022-07-17T04:12:44;101791.84;;;10.10;69.62
54270;BME280;40181;51.560;13.000;2022-07-17T04:15:13;101783.66;;;10.27;69.47
54270;BME280;40181;51.560;13.000;2022-07-17T04:18:01;101791.53;;;10.27;69.68
54270;BME280;40181;51.560;13.000;2022-07-17T04:20:29;101789.88;;;10.31;69.62
54270;BME280;40181;51.560;13.000;2022-07-17T04:22:57;101782.91;;;10.31;69.50
54270;BME280;40181;51.560;13.000;2022-07-17T04:25:25;101785.75;;;10.37;69.61
54270;BME280;40181;51.560;13.000;2022-07-17T04:27:56;101786.47;;;10.33;69.42
54270;BME280;40181;51.560;13.000;2022-07-17T04:30:24;101786.81;;;10.43;69.31
54270;BME280;40181;51.560;13.000;2022-07-17T04:32:52;101801.09;;;10.49;69.10
54270;BME280;40181;51.560;13.000;2022-07-17T04:35:20;101793.94;;;10.45;69.52
54270;BME280;40181;51.560;13.000;2022-07-17T04:37:49;101798.63;;;10.54;69.45
54270;BME280;40181;51.560;13.000;2022-07-17T04:40:17;101792.06;;;10.69;69.51
54270;BME280;40181;51.560;13.000;2022-07-17T04:42:45;101793.16;;;10.75;69.68
54270;BME280;40181;51.560;13.000;2022-07-17T04:45:16;101789.78;;;10.79;69.74
54270;BME280;40181;51.560;13.000;2022-07-17T04:47:44;101797.13;;;10.90;69.69
54270;BME280;40181;51.560;13.000;2022-07-17T04:50:12;101799.25;;;11.02;69.16
54270;BME280;40181;51.560;13.000;2022-07-17T04:52:40;101796.78;;;11.06;69.26
54270;BME280;40181;51.560;13.000;2022-07-17T04:55:09;101804.00;;;11.14;69.32
54270;BME280;40181;51.560;13.000;2022-07-17T04:57:37;101797.91;;;11.15;69.18
54270;BME280;40181;51.560;13.000;2022-07-17T05:00:08;101798.19;;;11.24;69.25
54270;BME280;40181;51.560;13.000;2022-07-17T05:02:39;101813.31;;;11.31;69.21
54270;BME280;40181;51.560;13.000;2022-07-17T05:05:07;101797.94;;;11.45;69.27
54270;BME280;40181;51.560;13.000;2022-07-17T05:07:35;101802.44;;;11.49;68.65
54270;BME280;40181;51.560;13.000;2022-07-17T05:10:04;101808.78;;;11.56;69.08
54270;BME280;40181;51.560;13.000;2022-07-17T05:12:34;101806.59;;;11.72;68.37
54270;BME280;40181;51.560;13.000;2022-07-17T05:15:02;101808.25;;;11.68;68.37
54270;BME280;40181;51.560;13.000;2022-07-17T05:17:31;101799.75;;;11.79;68.33
54270;BME280;40181;51.560;13.000;2022-07-17T05:20:03;101811.13;;;11.76;68.29
54270;BME280;40181;51.560;13.000;2022-07-17T05:22:31;101821.00;;;11.85;68.32
54270;BME280;40181;51.560;13.000;2022-07-17T05:24:59;101822.84;;;11.87;67.87
54270;BME280;40181;51.560;13.000;2022-07-17T05:27:27;101816.97;;;11.98;67.77
54270;BME280;40181;51.560;13.000;2022-07-17T05:29:56;101815.56;;;12.09;67.70
54270;BME280;40181;51.560;13.000;2022-07-17T05:32:24;101815.81;;;12.18;67.52
54270;BME280;40181;51.560;13.000;2022-07-17T05:34:52;101820.28;;;12.21;67.55
54270;BME280;40181;51.560;13.000;2022-07-17T05:37:23;101811.56;;;12.24;67.12
54270;BME280;40181;51.560;13.000;2022-07-17T05:39:51;101812.66;;;12.32;67.44
54270;BME280;40181;51.560;13.000;2022-07-17T05:42:19;101821.72;;;12.43;67.57
54270;BME280;40181;51.560;13.000;2022-07-17T05:44:47;101811.50;;;12.56;66.68
54270;BME280;40181;51.560;13.000;2022-07-17T05:47:16;101815.16;;;12.61;66.78
54270;BME280;40181;51.560;13.000;2022-07-17T05:49:44;101798.81;;;12.76;66.30
54270;BME280;40181;51.560;13.000;2022-07-17T05:52:12;101802.63;;;12.88;65.83
54270;BME280;40181;51.560;13.000;2022-07-17T05:54:43;101801.19;;;13.02;65.70
54270;BME280;40181;51.560;13.000;2022-07-17T05:57:11;101809.41;;;13.16;64.88
54270;BME280;40181;51.560;13.000;2022-07-17T05:59:39;101808.66;;;13.22;64.62
54270;BME280;40181;51.560;13.000;2022-07-17T06:02:07;101809.00;;;13.37;63.75
54270;BME280;40181;51.560;13.000;2022-07-17T06:04:35;101801.38;;;13.48;63.40
54270;BME280;40181;51.560;13.000;2022-07-17T06:07:03;101809.53;;;13.61;63.29
54270;BME280;40181;51.560;13.000;2022-07-17T06:09:31;101819.50;;;13.74;62.19
54270;BME280;40181;51.560;13.000;2022-07-17T06:12:03;101822.34;;;13.85;61.68
54270;BME280;40181;51.560;13.000;2022-07-17T06:14:31;101823.38;;;13.93;61.55
54270;BME280;40181;51.560;13.000;2022-07-17T06:16:59;101826.16;;;14.00;60.92
54270;BME280;40181;51.560;13.000;2022-07-17T06:19:27;101804.41;;;14.15;61.31
54270;BME280;40181;51.560;13.000;2022-07-17T06:21:55;101837.09;;;14.18;61.11
54270;BME280;40181;51.560;13.000;2022-07-17T06:24:24;101834.56;;;14.24;60.85
54270;BME280;40181;51.560;13.000;2022-07-17T06:26:52;101828.63;;;14.36;60.76
54270;BME280;40181;51.560;13.000;2022-07-17T06:29:23;101839.44;;;14.50;60.57
54270;BME280;40181;51.560;13.000;2022-07-17T06:31:51;101835.88;;;14.50;59.77
54270;BME280;40181;51.560;13.000;2022-07-17T06:34:19;101822.78;;;14.56;59.59
54270;BME280;40181;51.560;13.000;2022-07-17T06:36:47;101826.56;;;14.72;59.56
54270;BME280;40181;51.560;13.000;2022-07-17T06:39:15;101825.84;;;14.79;59.63
54270;BME280;40181;51.560;13.000;2022-07-17T06:41:43;101821.28;;;14.72;59.08
54270;BME280;40181;51.560;13.000;2022-07-17T06:44:11;101831.31;;;14.90;57.48
54270;BME280;40181;51.560;13.000;2022-07-17T06:46:42;101835.88;;;15.02;57.28
54270;BME280;40181;51.560;13.000;2022-07-17T06:49:10;101844.03;;;15.15;56.87
54270;BME280;40181;51.560;13.000;2022-07-17T06:51:38;101834.41;;;15.21;56.88
54270;BME280;40181;51.560;13.000;2022-07-17T06:54:07;101846.00;;;15.30;55.93
54270;BME280;40181;51.560;13.000;2022-07-17T06:56:36;101835.53;;;15.38;55.16
54270;BME280;40181;51.560;13.000;2022-07-17T06:59:04;101845.38;;;15.48;55.00
54270;BME280;40181;51.560;13.000;2022-07-17T07:01:32;101831.28;;;15.51;55.06
54270;BME280;40181;51.560;13.000;2022-07-17T07:04:04;101837.47;;;15.53;54.50
54270;BME280;40181;51.560;13.000;2022-07-17T07:06:32;101829.78;;;15.70;54.85
54270;BME280;40181;51.560;13.000;2022-07-17T07:09:00;101834.13;;;15.66;54.04
54270;BME280;40181;51.560;13.000;2022-07-17T07:11:29;101839.38;;;15.61;54.19
54270;BME280;40181;51.560;13.000;2022-07-17T07:13:57;101835.00;;;15.65;54.29
54270;BME280;40181;51.560;13.000;2022-07-17T07:16:25;101844.63;;;15.57;53.99
54270;BME280;40181;51.560;13.000;2022-07-17T07:18:53;101843.91;;;15.72;53.62
54270;BME280;40181;51.560;13.000;2022-07-17T07:21:24;101826.31;;;15.75;53.77
54270;BME280;40181;51.560;13.000;2022-07-17T07:23:52;101839.03;;;16.03;54.44
54270;BME280;40181;51.560;13.000;2022-07-17T07:26:21;101842.47;;;15.97;53.95
54270;BME280;40181;51.560;13.000;2022-07-17T07:28:49;101835.59;;;16.12;54.68
54270;BME280;40181;51.560;13.000;2022-07-17T07:31:17;101827.59;;;16.07;54.49
54270;BME280;40181;51.560;13.000;2022-07-17T07:33:46;101843.50;;;16.07;52.72
54270;BME280;40181;51.560;13.000;2022-07-17T07:36:14;101827.69;;;16.20;52.50
54270;BME280;40181;51.560;13.000;2022-07-17T07:38:45;101819.88;;;16.34;52.57
54270;BME280;40181;51.560;13.000;2022-07-17T07:41:13;101820.94;;;16.50;52.56
54270;BME280;40181;51.560;13.000;2022-07-17T07:43:41;101828.88;;;16.48;52.12
54270;BME280;40181;51.560;13.000;2022-07-17T07:46:09;101826.31;;;16.57;52.29
54270;BME280;40181;51.560;13.000;2022-07-17T07:48:37;101835.03;;;16.44;52.73
54270;BME280;40181;51.560;13.000;2022-07-17T07:51:05;101833.31;;;16.51;51.80
54270;BME280;40181;51.560;13.000;2022-07-17T07:53:34;101837.88;;;16.69;51.36
54270;BME280;40181;51.560;13.000;2022-07-17T07:56:05;101823.06;;;16.94;51.00
54270;BME280;40181;51.560;13.000;2022-07-17T07:58:33;101820.50;;;17.02;50.58
54270;BME280;40181;51.560;13.000;2022-07-17T08:01:02;101826.59;;;16.93;51.50
54270;BME280;40181;51.560;13.000;2022-07-17T08:03:30;101840.78;;;16.98;51.01
54270;BME280;40181;51.560;13.000;2022-07-17T08:05:58;101826.81;;;17.23;51.10
54270;BME280;40181;51.560;13.000;2022-07-17T08:08:27;101825.19;;;17.50;50.41
54270;BME280;40181;51.560;13.000;2022-07-17T08:10:55;101835.78;;;17.45;49.41
54270;BME280;40181;51.560;13.000;2022-07-17T08:13:25;101832.34;;;17.66;49.06
54270;BME280;40181;51.560;13.000;2022-07-17T08:15:53;101833.22;;;17.58;49.17
54270;BME280;40181;51.560;13.000;2022-07-17T08:18:21;101819.91;;;17.61;49.13
54270;BME280;40181;51.560;13.000;2022-07-17T08:20:50;101831.53;;;17.83;49.49
54270;BME280;40181;51.560;13.000;2022-07-17T08:23:19;101834.19;;;17.83;48.88
54270;BME280;40181;51.560;13.000;2022-07-17T08:25:47;101833.34;;;17.96;50.40
54270;BME280;40181;51.560;13.000;2022-07-17T08:28:15;101836.88;;;18.00;47.98
54270;BME280;40181;51.560;13.000;2022-07-17T08:30:46;101833.28;;;17.81;48.10
54270;BME280;40181;51.560;13.000;2022-07-17T08:33:14;101822.78;;;18.17;49.42
54270;BME280;40181;51.560;13.000;2022-07-17T08:35:43;101818.34;;;18.20;47.59
54270;BME280;40181;51.560;13.000;2022-07-17T08:38:11;101826.38;;;18.23;47.43
54270;BME280;40181;51.560;13.000;2022-07-17T08:40:39;101832.56;;;18.33;47.45
54270;BME280;40181;51.560;13.000;2022-07-17T08:43:09;101832.56;;;18.41;47.25
54270;BME280;40181;51.560;13.000;2022-07-17T08:45:39;101827.25;;;18.44;47.44
54270;BME280;40181;51.560;13.000;2022-07-17T08:48:12;101834.34;;;18.67;46.58
54270;BME280;40181;51.560;13.000;2022-07-17T08:50:41;101831.72;;;18.51;46.39
54270;BME280;40181;51.560;13.000;2022-07-17T08:53:09;101837.88;;;18.24;47.46
54270;BME280;40181;51.560;13.000;2022-07-17T08:55:38;101827.28;;;18.60;45.84
54270;BME280;40181;51.560;13.000;2022-07-17T08:58:06;101840.59;;;18.67;45.91
54270;BME280;40181;51.560;13.000;2022-07-17T09:00:34;101825.50;;;18.76;45.67
54270;BME280;40181;51.560;13.000;2022-07-17T09:03:05;101826.34;;;19.28;44.57
54270;BME280;40181;51.560;13.000;2022-07-17T09:05:38;101834.31;;;19.25;44.96
54270;BME280;40181;51.560;13.000;2022-07-17T09:08:11;101841.41;;;19.35;45.27
54270;BME280;40181;51.560;13.000;2022-07-17T09:10:45;101839.72;;;19.09;45.38
54270;BME280;40181;51.560;13.000;2022-07-17T09:13:16;101831.69;;;19.23;45.55
54270;BME280;40181;51.560;13.000;2022-07-17T09:15:45;101834.25;;;19.49;45.01
54270;BME280;40181;51.560;13.000;2022-07-17T09:18:14;101832.41;;;19.70;44.57
54270;BME280;40181;51.560;13.000;2022-07-17T09:20:51;101829.69;;;19.81;47.19
54270;BME280;40181;51.560;13.000;2022-07-17T09:23:21;101826.13;;;19.95;43.57
54270;BME280;40181;51.560;13.000;2022-07-17T09:25:51;101810.06;;;20.04;42.97
54270;BME280;40181;51.560;13.000;2022-07-17T09:28:20;101806.31;;;20.30;42.24
54270;BME280;40181;51.560;13.000;2022-07-17T09:30:51;101804.50;;;20.34;42.52
54270;BME280;40181;51.560;13.000;2022-07-17T09:33:20;101804.38;;;20.48;42.30
54270;BME280;40181;51.560;13.000;2022-07-17T09:35:53;101807.66;;;20.87;42.16
54270;BME280;40181;51.560;13.000;2022-07-17T09:38:29;101819.09;;;20.98;40.57
54270;BME280;40181;51.560;13.000;2022-07-17T09:41:02;101815.63;;;20.90;40.69
54270;BME280;40181;51.560;13.000;2022-07-17T09:43:43;101815.81;;;20.67;40.89
54270;BME280;40181;51.560;13.000;2022-07-17T09:46:14;101805.81;;;20.94;41.74
54270;BME280;40181;51.560;13.000;2022-07-17T09:48:44;101810.09;;;21.12;41.75
54270;BME280;40181;51.560;13.000;2022-07-17T09:51:23;101803.78;;;21.14;40.48
54270;BME280;40181;51.560;13.000;2022-07-17T09:53:53;101806.25;;;21.35;41.26
54270;BME280;40181;51.560;13.000;2022-07-17T09:56:23;101800.16;;;21.25;41.21
54270;BME280;40181;51.560;13.000;2022-07-17T09:58:53;101800.66;;;21.55;41.12
54270;BME280;40181;51.560;13.000;2022-07-17T10:01:22;101807.72;;;21.61;40.06
54270;BME280;40181;51.560;13.000;2022-07-17T10:03:51;101803.56;;;21.33;40.52
54270;BME280;40181;51.560;13.000;2022-07-17T10:06:24;101802.38;;;21.59;39.81
54270;BME280;40181;51.560;13.000;2022-07-17T10:08:53;101807.09;;;21.40;40.89
54270;BME280;40181;51.560;13.000;2022-07-17T10:11:23;101803.19;;;21.71;39.36
54270;BME280;40181;51.560;13.000;2022-07-17T10:13:54;101808.97;;;21.28;39.55
54270;BME280;40181;51.560;13.000;2022-07-17T10:16:24;101813.75;;;21.80;40.06
54270;BME280;40181;51.560;13.000;2022-07-17T10:18:52;101810.47;;;22.22;39.70
54270;BME280;40181;51.560;13.000;2022-07-17T10:21:27;101816.03;;;22.08;38.88
54270;BME280;40181;51.560;13.000;2022-07-17T10:24:08;101816.50;;;21.75;38.81
54270;BME280;40181;51.560;13.000;2022-07-17T10:26:39;101813.56;;;21.91;38.54
54270;BME280;40181;51.560;13.000;2022-07-17T10:29:25;101818.34;;;21.68;39.24
54270;BME280;40181;51.560;13.000;2022-07-17T10:31:54;101817.81;;;22.07;39.00
54270;BME280;40181;51.560;13.000;2022-07-17T10:34:37;101804.91;;;22.36;39.19
54270;BME280;40181;51.560;13.000;2022-07-17T10:37:20;101811.88;;;21.85;38.89
54270;BME280;40181;51.560;13.000;2022-07-17T10:40:00;101819.59;;;21.36;39.45
54270;BME280;40181;51.560;13.000;2022-07-17T10:45:31;101820.94;;;21.75;39.48
54270;BME280;40181;51.560;13.000;2022-07-17T10:48:04;101820.38;;;22.15;38.35
54270;BME280;40181;51.560;13.000;2022-07-17T10:50:34;101815.59;;;22.36;37.90
54270;BME280;40181;51.560;13.000;2022-07-17T10:53:14;101812.16;;;22.29;39.04
54270;BME280;40181;51.560;13.000;2022-07-17T10:55:47;101812.16;;;22.29;38.11
54270;BME280;40181;51.560;13.000;2022-07-17T10:58:18;101816.44;;;22.38;37.39
54270;BME280;40181;51.560;13.000;2022-07-17T11:01:05;101800.03;;;22.03;37.57
54270;BME280;40181;51.560;13.000;2022-07-17T11:03:41;101805.97;;;22.22;37.46
54270;BME280;40181;51.560;13.000;2022-07-17T11:06:12;101811.00;;;22.44;37.24
54270;BME280;40181;51.560;13.000;2022-07-17T11:08:45;101800.53;;;22.84;36.21
54270;BME280;40181;51.560;13.000;2022-07-17T11:11:14;101795.25;;;22.79;36.21
54270;BME280;40181;51.560;13.000;2022-07-17T11:13:43;101789.00;;;22.80;35.97
54270;BME280;40181;51.560;13.000;2022-07-17T11:16:11;101788.97;;;22.83;36.67
54270;BME280;40181;51.560;13.000;2022-07-17T11:18:46;101801.38;;;22.86;36.07
54270;BME280;40181;51.560;13.000;2022-07-17T11:21:14;101797.03;;;23.29;36.41
54270;BME280;40181;51.560;13.000;2022-07-17T11:23:54;101794.84;;;23.02;36.16
54270;BME280;40181;51.560;13.000;2022-07-17T11:26:22;101788.75;;;23.41;35.80
54270;BME280;40181;51.560;13.000;2022-07-17T11:28:50;101781.16;;;23.16;35.22
54270;BME280;40181;51.560;13.000;2022-07-17T11:31:21;101778.63;;;23.56;34.79
54270;BME280;40181;51.560;13.000;2022-07-17T11:33:52;101767.97;;;23.92;35.91
54270;BME280;40181;51.560;13.000;2022-07-17T11:36:23;101763.13;;;24.44;35.89
54270;BME280;40181;51.560;13.000;2022-07-17T11:38:55;101763.44;;;24.68;35.69
54270;BME280;40181;51.560;13.000;2022-07-17T11:41:34;101759.03;;;23.90;37.13
54270;BME280;40181;51.560;13.000;2022-07-17T11:44:03;101762.09;;;24.50;33.78
54270;BME280;40181;51.560;13.000;2022-07-17T11:46:33;101759.97;;;24.63;34.12
54270;BME280;40181;51.560;13.000;2022-07-17T11:49:01;101754.13;;;24.82;34.70
54270;BME280;40181;51.560;13.000;2022-07-17T11:51:38;101760.72;;;24.68;32.38
54270;BME280;40181;51.560;13.000;2022-07-17T11:54:11;101753.78;;;23.85;32.68
54270;BME280;40181;51.560;13.000;2022-07-17T11:56:41;101766.38;;;22.95;32.93
54270;BME280;40181;51.560;13.000;2022-07-17T11:59:10;101748.31;;;24.29;31.96
54270;BME280;40181;51.560;13.000;2022-07-17T12:01:41;101749.75;;;24.43;32.39
54270;BME280;40181;51.560;13.000;2022-07-17T12:04:11;101761.72;;;24.64;31.94
54270;BME280;40181;51.560;13.000;2022-07-17T12:06:39;101757.03;;;25.37;33.34
54270;BME280;40181;51.560;13.000;2022-07-17T12:09:10;101758.88;;;25.67;34.66
54270;BME280;40181;51.560;13.000;2022-07-17T12:11:46;101748.25;;;25.62;31.86
54270;BME280;40181;51.560;13.000;2022-07-17T12:14:14;101755.84;;;25.48;31.90
54270;BME280;40181;51.560;13.000;2022-07-17T12:16:43;101743.84;;;25.88;31.25
54270;BME280;40181;51.560;13.000;2022-07-17T12:19:14;101755.09;;;26.01;30.48
54270;BME280;40181;51.560;13.000;2022-07-17T12:21:50;101751.34;;;25.48;29.36
54270;BME280;40181;51.560;13.000;2022-07-17T12:24:26;101740.75;;;25.42;31.06
54270;BME280;40181;51.560;13.000;2022-07-17T12:26:57;101742.00;;;26.17;29.85
54270;BME280;40181;51.560;13.000;2022-07-17T12:29:27;101737.28;;;25.68;28.84
54270;BME280;40181;51.560;13.000;2022-07-17T12:32:07;101743.44;;;25.42;28.94
54270;BME280;40181;51.560;13.000;2022-07-17T12:34:35;101750.06;;;25.62;30.17
54270;BME280;40181;51.560;13.000;2022-07-17T12:37:10;101740.41;;;25.23;29.54
54270;BME280;40181;51.560;13.000;2022-07-17T12:39:41;101738.38;;;25.91;28.92
54270;BME280;40181;51.560;13.000;2022-07-17T12:42:09;101727.50;;;25.94;29.26
54270;BME280;40181;51.560;13.000;2022-07-17T12:44:37;101734.16;;;25.82;28.02
54270;BME280;40181;51.560;13.000;2022-07-17T12:47:07;101732.19;;;25.59;29.50
54270;BME280;40181;51.560;13.000;2022-07-17T12:49:35;101717.50;;;25.98;28.64
54270;BME280;40181;51.560;13.000;2022-07-17T12:52:05;101721.34;;;26.18;28.83
54270;BME280;40181;51.560;13.000;2022-07-17T12:54:33;101718.38;;;25.72;29.28
54270;BME280;40181;51.560;13.000;2022-07-17T12:57:03;101720.19;;;25.98;29.28